EDT,Max TemperatureF,Mean TemperatureF,Min TemperatureF,Max Dew PointF,MeanDew PointF,Min DewpointF,Max Humidity, Mean Humidity, Min Humidity, Max Sea Level PressureIn, Mean Sea Level PressureIn, Min Sea Level PressureIn, Max VisibilityMiles, Mean VisibilityMiles, Min VisibilityMiles, Max Wind SpeedMPH, Mean Wind SpeedMPH, Max Gust SpeedMPH,PrecipitationIn, CloudCover, Events, WindDirDegrees
2013-3-1,38,34,29,32,26,20,96,72,48,29.73,29.64,29.56,10,9,2,14,4,22,T,7,,296
2013-3-2,35,31,27,24,21,18,81,70,58,29.73,29.71,29.68,10,10,6,14,6,24,T,8,Snow,302
2013-3-3,31,28,25,20,19,18,81,72,63,29.70,29.67,29.63,10,8,2,14,5,20,T,8,Snow,288
2013-3-4,34,29,24,20,16,14,75,61,47,29.86,29.72,29.67,10,10,5,20,8,29,T,8,Snow,296
2013-3-5,41,34,27,24,20,16,85,65,45,30.10,30.00,29.85,10,10,8,13,4,17,T,6,,330
2013-3-6,36,33,29,33,26,19,100,78,56,30.20,30.13,30.07,10,6,1,18,7,26,0.03,8,Snow,54
2013-3-7,37,34,30,28,22,18,82,67,52,30.18,30.12,30.08,10,8,1,13,5,18,0.02,8,Snow,19
2013-3-8,42,35,27,25,22,17,85,61,36,30.27,30.12,30.04,10,6,1,15,6,24,0.06,6,Snow,10
2013-3-9,54,37,19,22,17,10,91,55,18,30.36,30.29,30.25,10,10,9,9,3,16,0.00,0,,14
2013-3-10,50,35,19,26,21,16,92,62,31,30.41,30.32,30.24,10,10,9,12,3,17,0.00,1,,152
2013-3-11,45,39,33,35,30,26,82,68,53,30.26,30.17,30.09,10,10,10,12,4,16,0.00,4,,153
2013-3-12,49,43,37,48,42,32,100,88,76,30.07,29.86,29.69,10,4,0,10,2,17,0.88,8,Fog-Rain,238
2013-3-13,43,35,27,32,24,17,78,58,38,29.82,29.79,29.75,10,10,10,14,5,22,0.00,6,,298
2013-3-14,32,26,19,23,11,5,78,58,38,29.88,29.81,29.75,10,8,2,22,8,30,T,7,Snow,281
2013-3-15,35,26,16,28,14,-1,85,57,28,29.91,29.72,29.60,10,8,1,14,6,25,0.01,6,Snow,273
2013-3-16,32,26,20,15,8,5,57,45,32,29.90,29.82,29.73,10,10,10,14,5,22,0.00,5,,313
2013-3-17,30,23,16,14,5,-2,68,48,28,30.34,30.10,29.91,10,10,10,20,6,29,0.00,3,,296
2013-3-18,34,21,7,21,4,-1,73,49,24,30.48,30.35,30.20,10,9,2,10,1,14,0.05,2,Snow,170
2013-3-19,32,28,24,28,25,21,92,85,78,30.17,29.88,29.72,5,1,0,12,2,14,0.64,8,Fog-Snow,30
2013-3-20,33,24,15,22,17,13,77,63,49,29.79,29.73,29.68,10,9,4,16,6,24,T,6,Snow,250
2013-3-21,37,22,7,15,10,2,96,63,29,29.80,29.72,29.63,10,10,7,10,2,16,0.00,2,,299
2013-3-22,36,24,12,21,14,7,80,61,41,29.76,29.69,29.66,10,10,3,16,5,21,T,4,Snow,279
2013-3-23,38,31,24,19,16,13,68,53,37,29.82,29.72,29.67,10,9,2,25,11,35,T,7,Snow,286
2013-3-24,41,33,24,19,18,18,75,58,40,29.87,29.82,29.78,10,10,10,15,5,26,0.00,6,,312
2013-3-25,41,31,21,24,21,18,88,65,41,29.81,29.68,29.56,10,10,9,13,2,17,0.00,6,,64
2013-3-26,43,35,26,28,21,15,92,63,33,29.83,29.71,29.60,10,10,8,16,4,23,T,5,Snow,302
2013-3-27,48,35,22,27,21,18,88,61,34,29.92,29.84,29.81,10,10,10,20,6,28,0.00,5,,315
2013-3-28,47,38,29,32,28,25,89,67,45,30.06,29.98,29.91,10,10,6,15,2,21,0.01,8,Rain-Snow,311
2013-3-29,49,39,28,30,28,26,92,67,42,30.09,30.06,30.02,10,10,9,15,4,26,T,6,Rain,285
2013-3-30,51,38,25,29,21,15,92,58,24,30.13,30.09,30.04,10,10,8,17,4,24,0.00,1,,307
2013-3-31,55,38,21,37,26,18,100,63,26,30.14,29.95,29.75,10,8,2,22,5,32,0.34,3,Rain,163